Terminal Aerodrome Forecast
Issued by NWS Pueblo, CO

Home | Current Version | Previous Version | Text Only | Print | Product List | Glossary On
Versions: 1 2 3 4 5 6 7 8 9 10 11 12 13 14 15 16 17 18 19 20 21 22 23 24 25 26 27 28
000
FTUS45 KPUB 240532
TAFCOS
TAF
KCOS 240532Z 2406/2506 35007KT P6SM SCT100 SCT200
     FM240800 03007KT P6SM SCT100 SCT150
     FM241900 35010G20KT P6SM VCTS SCT080CB SCT130 BKN150
     FM250400 35008KT P6SM SCT080 BKN150=

USA.gov is the U.S. government's official web portal to all federal, state and local government web resources and services.